<?xml version="1.0" encoding="UTF-8" standalone="no" ?>
<gpx xmlns="http://www.topografix.com/GPX/1/1" xmlns:xsi="http://www.w3.org/2001/XMLSchema-instance" xsi:schemaLocation="http://www.topografix.com/GPX/1/1 http://www.topografix.com/GPX/1/1/gpx.xsd" version="1.1" creator="VisuGPX - https://www.visugpx.com">
  <metadata>
    <name>rando raquette Piau Engaly 15dec2013</name>
    <desc><![CDATA[rando station Piau Engaly]]></desc>
  </metadata>
  <trk>
    <name><![CDATA[15 déc. 2013 09:42 (Marche/Course (auto))]]></name>
    <trkseg>
      <trkpt lat="42.78671" lon="0.15355">
        <ele>1835.3</ele>
        <time>2013-12-15T08:44:15Z</time>
      </trkpt>
      <trkpt lat="42.78666" lon="0.15345">
        <ele>1836.8</ele>
        <time>2013-12-15T08:44:25Z</time>
      </trkpt>
      <trkpt lat="42.78677" lon="0.15366">
        <ele>1817.416626</ele>
        <time>2013-12-15T08:45:02Z</time>
      </trkpt>
      <trkpt lat="42.78676" lon="0.15353">
        <ele>1817.416626</ele>
        <time>2013-12-15T08:45:14Z</time>
      </trkpt>
      <trkpt lat="42.78677" lon="0.1534">
        <ele>1817.416626</ele>
        <time>2013-12-15T08:45:34Z</time>
      </trkpt>
      <trkpt lat="42.78672" lon="0.1533">
        <ele>1813.583374</ele>
        <time>2013-12-15T08:45:43Z</time>
      </trkpt>
      <trkpt lat="42.78673" lon="0.15317">
        <ele>1813.583374</ele>
        <time>2013-12-15T08:45:51Z</time>
      </trkpt>
      <trkpt lat="42.78677" lon="0.15291">
        <ele>1813.583374</ele>
        <time>2013-12-15T08:46:26Z</time>
      </trkpt>
      <trkpt lat="42.78678" lon="0.15278">
        <ele>1821.416626</ele>
        <time>2013-12-15T08:46:37Z</time>
      </trkpt>
      <trkpt lat="42.78677" lon="0.15266">
        <ele>1821.416626</ele>
        <time>2013-12-15T08:46:43Z</time>
      </trkpt>
      <trkpt lat="42.78677" lon="0.15253">
        <ele>1821.416626</ele>
        <time>2013-12-15T08:46:52Z</time>
      </trkpt>
      <trkpt lat="42.78675" lon="0.1524">
        <ele>1821.416626</ele>
        <time>2013-12-15T08:47:01Z</time>
      </trkpt>
      <trkpt lat="42.78682" lon="0.15231">
        <ele>1821.416626</ele>
        <time>2013-12-15T08:47:12Z</time>
      </trkpt>
      <trkpt lat="42.78687" lon="0.15219">
        <ele>1821.416626</ele>
        <time>2013-12-15T08:47:20Z</time>
      </trkpt>
      <trkpt lat="42.78687" lon="0.15205">
        <ele>1821.416626</ele>
        <time>2013-12-15T08:47:30Z</time>
      </trkpt>
      <trkpt lat="42.78686" lon="0.15192">
        <ele>1817.166626</ele>
        <time>2013-12-15T08:47:38Z</time>
      </trkpt>
      <trkpt lat="42.78685" lon="0.1518">
        <ele>1817.166626</ele>
        <time>2013-12-15T08:47:49Z</time>
      </trkpt>
      <trkpt lat="42.78686" lon="0.15168">
        <ele>1817.166626</ele>
        <time>2013-12-15T08:47:59Z</time>
      </trkpt>
      <trkpt lat="42.7869" lon="0.15156">
        <ele>1817.166626</ele>
        <time>2013-12-15T08:48:08Z</time>
      </trkpt>
      <trkpt lat="42.78663" lon="0.15147">
        <ele>1817.166626</ele>
        <time>2013-12-15T08:51:26Z</time>
      </trkpt>
      <trkpt lat="42.78653" lon="0.15113">
        <ele>1831</ele>
        <time>2013-12-15T08:52:55Z</time>
      </trkpt>
      <trkpt lat="42.78656" lon="0.15101">
        <ele>1828</ele>
        <time>2013-12-15T08:53:01Z</time>
      </trkpt>
      <trkpt lat="42.78658" lon="0.15089">
        <ele>1828</ele>
        <time>2013-12-15T08:53:11Z</time>
      </trkpt>
      <trkpt lat="42.78661" lon="0.15076">
        <ele>1816.25</ele>
        <time>2013-12-15T08:53:19Z</time>
      </trkpt>
      <trkpt lat="42.78664" lon="0.15063">
        <ele>1816.25</ele>
        <time>2013-12-15T08:53:30Z</time>
      </trkpt>
      <trkpt lat="42.78665" lon="0.15051">
        <ele>1816.25</ele>
        <time>2013-12-15T08:53:38Z</time>
      </trkpt>
      <trkpt lat="42.7866" lon="0.15039">
        <ele>1816.25</ele>
        <time>2013-12-15T08:53:43Z</time>
      </trkpt>
      <trkpt lat="42.78659" lon="0.15027">
        <ele>1820.166626</ele>
        <time>2013-12-15T08:53:49Z</time>
      </trkpt>
      <trkpt lat="42.78658" lon="0.15014">
        <ele>1820.166626</ele>
        <time>2013-12-15T08:54:00Z</time>
      </trkpt>
      <trkpt lat="42.78651" lon="0.14991">
        <ele>1820.166626</ele>
        <time>2013-12-15T08:54:32Z</time>
      </trkpt>
      <trkpt lat="42.78648" lon="0.14979">
        <ele>1820.166626</ele>
        <time>2013-12-15T08:54:47Z</time>
      </trkpt>
      <trkpt lat="42.78646" lon="0.14967">
        <ele>1820.166626</ele>
        <time>2013-12-15T08:55:00Z</time>
      </trkpt>
      <trkpt lat="42.78644" lon="0.14954">
        <ele>1835.25</ele>
        <time>2013-12-15T08:55:08Z</time>
      </trkpt>
      <trkpt lat="42.78641" lon="0.14941">
        <ele>1835.25</ele>
        <time>2013-12-15T08:55:19Z</time>
      </trkpt>
      <trkpt lat="42.78644" lon="0.14929">
        <ele>1835.25</ele>
        <time>2013-12-15T08:55:30Z</time>
      </trkpt>
      <trkpt lat="42.78644" lon="0.14916">
        <ele>1835.25</ele>
        <time>2013-12-15T08:55:41Z</time>
      </trkpt>
      <trkpt lat="42.78643" lon="0.14904">
        <ele>1835.25</ele>
        <time>2013-12-15T08:55:49Z</time>
      </trkpt>
      <trkpt lat="42.78629" lon="0.14859">
        <ele>1811</ele>
        <time>2013-12-15T08:57:10Z</time>
      </trkpt>
      <trkpt lat="42.78614" lon="0.14818">
        <ele>1811</ele>
        <time>2013-12-15T08:58:16Z</time>
      </trkpt>
      <trkpt lat="42.7861" lon="0.14806">
        <ele>1811</ele>
        <time>2013-12-15T08:58:24Z</time>
      </trkpt>
      <trkpt lat="42.78611" lon="0.14794">
        <ele>1807.5</ele>
        <time>2013-12-15T08:58:36Z</time>
      </trkpt>
      <trkpt lat="42.78612" lon="0.14781">
        <ele>1789.5</ele>
        <time>2013-12-15T08:58:46Z</time>
      </trkpt>
      <trkpt lat="42.78612" lon="0.14768">
        <ele>1784.75</ele>
        <time>2013-12-15T08:58:56Z</time>
      </trkpt>
      <trkpt lat="42.78609" lon="0.14756">
        <ele>1784.75</ele>
        <time>2013-12-15T08:59:14Z</time>
      </trkpt>
      <trkpt lat="42.78611" lon="0.14742">
        <ele>1784.75</ele>
        <time>2013-12-15T08:59:25Z</time>
      </trkpt>
      <trkpt lat="42.78613" lon="0.14729">
        <ele>1784.75</ele>
        <time>2013-12-15T08:59:39Z</time>
      </trkpt>
      <trkpt lat="42.78605" lon="0.14681">
        <ele>1784.75</ele>
        <time>2013-12-15T09:01:07Z</time>
      </trkpt>
      <trkpt lat="42.78613" lon="0.14659">
        <ele>1782.166626</ele>
        <time>2013-12-15T09:01:40Z</time>
      </trkpt>
      <trkpt lat="42.78614" lon="0.14635">
        <ele>1782.166626</ele>
        <time>2013-12-15T09:02:16Z</time>
      </trkpt>
      <trkpt lat="42.78615" lon="0.14622">
        <ele>1797.916626</ele>
        <time>2013-12-15T09:02:30Z</time>
      </trkpt>
      <trkpt lat="42.7861" lon="0.14611">
        <ele>1807.5</ele>
        <time>2013-12-15T09:02:42Z</time>
      </trkpt>
      <trkpt lat="42.78609" lon="0.14599">
        <ele>1807.5</ele>
        <time>2013-12-15T09:02:53Z</time>
      </trkpt>
      <trkpt lat="42.78598" lon="0.14551">
        <ele>1819.583374</ele>
        <time>2013-12-15T09:06:01Z</time>
      </trkpt>
      <trkpt lat="42.78593" lon="0.14539">
        <ele>1819.583374</ele>
        <time>2013-12-15T09:06:12Z</time>
      </trkpt>
      <trkpt lat="42.7859" lon="0.14527">
        <ele>1819.583374</ele>
        <time>2013-12-15T09:06:22Z</time>
      </trkpt>
      <trkpt lat="42.78593" lon="0.14503">
        <ele>1828.166626</ele>
        <time>2013-12-15T09:06:52Z</time>
      </trkpt>
      <trkpt lat="42.78591" lon="0.1449">
        <ele>1828.166626</ele>
        <time>2013-12-15T09:07:03Z</time>
      </trkpt>
      <trkpt lat="42.7859" lon="0.14477">
        <ele>1828.166626</ele>
        <time>2013-12-15T09:07:15Z</time>
      </trkpt>
      <trkpt lat="42.78576" lon="0.14444">
        <ele>1828.166626</ele>
        <time>2013-12-15T09:11:02Z</time>
      </trkpt>
      <trkpt lat="42.78573" lon="0.14432">
        <ele>1826</ele>
        <time>2013-12-15T09:11:15Z</time>
      </trkpt>
      <trkpt lat="42.78569" lon="0.1442">
        <ele>1826</ele>
        <time>2013-12-15T09:11:21Z</time>
      </trkpt>
      <trkpt lat="42.78567" lon="0.14408">
        <ele>1826</ele>
        <time>2013-12-15T09:11:33Z</time>
      </trkpt>
      <trkpt lat="42.78561" lon="0.14398">
        <ele>1833</ele>
        <time>2013-12-15T09:11:45Z</time>
      </trkpt>
      <trkpt lat="42.78552" lon="0.14391">
        <ele>1833</ele>
        <time>2013-12-15T09:12:05Z</time>
      </trkpt>
      <trkpt lat="42.78548" lon="0.1438">
        <ele>1833</ele>
        <time>2013-12-15T09:12:19Z</time>
      </trkpt>
      <trkpt lat="42.78543" lon="0.1437">
        <ele>1833</ele>
        <time>2013-12-15T09:12:32Z</time>
      </trkpt>
      <trkpt lat="42.78538" lon="0.14358">
        <ele>1833</ele>
        <time>2013-12-15T09:12:44Z</time>
      </trkpt>
      <trkpt lat="42.78533" lon="0.14347">
        <ele>1836.833374</ele>
        <time>2013-12-15T09:12:56Z</time>
      </trkpt>
      <trkpt lat="42.78528" lon="0.14336">
        <ele>1836.833374</ele>
        <time>2013-12-15T09:13:09Z</time>
      </trkpt>
      <trkpt lat="42.78522" lon="0.14327">
        <ele>1836.833374</ele>
        <time>2013-12-15T09:13:24Z</time>
      </trkpt>
      <trkpt lat="42.78516" lon="0.14304">
        <ele>1836.833374</ele>
        <time>2013-12-15T09:13:57Z</time>
      </trkpt>
      <trkpt lat="42.78514" lon="0.14292">
        <ele>1839.666626</ele>
        <time>2013-12-15T09:14:14Z</time>
      </trkpt>
      <trkpt lat="42.78508" lon="0.14282">
        <ele>1839.666626</ele>
        <time>2013-12-15T09:14:27Z</time>
      </trkpt>
      <trkpt lat="42.78504" lon="0.14269">
        <ele>1839.666626</ele>
        <time>2013-12-15T09:14:47Z</time>
      </trkpt>
      <trkpt lat="42.78497" lon="0.14261">
        <ele>1839.666626</ele>
        <time>2013-12-15T09:14:57Z</time>
      </trkpt>
      <trkpt lat="42.78491" lon="0.14252">
        <ele>1839</ele>
        <time>2013-12-15T09:15:10Z</time>
      </trkpt>
      <trkpt lat="42.78484" lon="0.14243">
        <ele>1839</ele>
        <time>2013-12-15T09:15:22Z</time>
      </trkpt>
      <trkpt lat="42.78478" lon="0.14233">
        <ele>1839</ele>
        <time>2013-12-15T09:15:35Z</time>
      </trkpt>
      <trkpt lat="42.78472" lon="0.14224">
        <ele>1844.333374</ele>
        <time>2013-12-15T09:15:49Z</time>
      </trkpt>
      <trkpt lat="42.78467" lon="0.14213">
        <ele>1844.333374</ele>
        <time>2013-12-15T09:16:02Z</time>
      </trkpt>
      <trkpt lat="42.78461" lon="0.14204">
        <ele>1844.333374</ele>
        <time>2013-12-15T09:16:13Z</time>
      </trkpt>
      <trkpt lat="42.78454" lon="0.14194">
        <ele>1844.333374</ele>
        <time>2013-12-15T09:16:26Z</time>
      </trkpt>
      <trkpt lat="42.78447" lon="0.14187">
        <ele>1845.166626</ele>
        <time>2013-12-15T09:16:42Z</time>
      </trkpt>
      <trkpt lat="42.7844" lon="0.14179">
        <ele>1845.166626</ele>
        <time>2013-12-15T09:16:56Z</time>
      </trkpt>
      <trkpt lat="42.78432" lon="0.14171">
        <ele>1845.166626</ele>
        <time>2013-12-15T09:17:11Z</time>
      </trkpt>
      <trkpt lat="42.78425" lon="0.14163">
        <ele>1845.166626</ele>
        <time>2013-12-15T09:17:28Z</time>
      </trkpt>
      <trkpt lat="42.78417" lon="0.14154">
        <ele>1845.166626</ele>
        <time>2013-12-15T09:17:40Z</time>
      </trkpt>
      <trkpt lat="42.78411" lon="0.14145">
        <ele>1853.583374</ele>
        <time>2013-12-15T09:17:52Z</time>
      </trkpt>
      <trkpt lat="42.78405" lon="0.14135">
        <ele>1853.583374</ele>
        <time>2013-12-15T09:18:08Z</time>
      </trkpt>
      <trkpt lat="42.78398" lon="0.14127">
        <ele>1853.583374</ele>
        <time>2013-12-15T09:18:20Z</time>
      </trkpt>
      <trkpt lat="42.78365" lon="0.14084">
        <ele>1853.583374</ele>
        <time>2013-12-15T09:29:19Z</time>
      </trkpt>
      <trkpt lat="42.78356" lon="0.1408">
        <ele>1853.666626</ele>
        <time>2013-12-15T09:29:26Z</time>
      </trkpt>
      <trkpt lat="42.78347" lon="0.14074">
        <ele>1853.666626</ele>
        <time>2013-12-15T09:29:34Z</time>
      </trkpt>
      <trkpt lat="42.78339" lon="0.14067">
        <ele>1853.666626</ele>
        <time>2013-12-15T09:29:45Z</time>
      </trkpt>
      <trkpt lat="42.78331" lon="0.14059">
        <ele>1853.666626</ele>
        <time>2013-12-15T09:29:52Z</time>
      </trkpt>
      <trkpt lat="42.78323" lon="0.14052">
        <ele>1853.666626</ele>
        <time>2013-12-15T09:29:59Z</time>
      </trkpt>
      <trkpt lat="42.78318" lon="0.14041">
        <ele>1863</ele>
        <time>2013-12-15T09:30:08Z</time>
      </trkpt>
      <trkpt lat="42.78309" lon="0.14036">
        <ele>1864.5</ele>
        <time>2013-12-15T09:30:18Z</time>
      </trkpt>
      <trkpt lat="42.78302" lon="0.14027">
        <ele>1865</ele>
        <time>2013-12-15T09:30:26Z</time>
      </trkpt>
      <trkpt lat="42.78294" lon="0.14022">
        <ele>1865</ele>
        <time>2013-12-15T09:30:33Z</time>
      </trkpt>
      <trkpt lat="42.78285" lon="0.14016">
        <ele>1879.666626</ele>
        <time>2013-12-15T09:30:43Z</time>
      </trkpt>
      <trkpt lat="42.78281" lon="0.14004">
        <ele>1881</ele>
        <time>2013-12-15T09:30:52Z</time>
      </trkpt>
      <trkpt lat="42.78274" lon="0.13996">
        <ele>1881</ele>
        <time>2013-12-15T09:31:01Z</time>
      </trkpt>
      <trkpt lat="42.78267" lon="0.13988">
        <ele>1881</ele>
        <time>2013-12-15T09:31:11Z</time>
      </trkpt>
      <trkpt lat="42.78259" lon="0.1398">
        <ele>1881</ele>
        <time>2013-12-15T09:31:21Z</time>
      </trkpt>
      <trkpt lat="42.78254" lon="0.13969">
        <ele>1881</ele>
        <time>2013-12-15T09:31:35Z</time>
      </trkpt>
      <trkpt lat="42.78248" lon="0.1396">
        <ele>1880.416626</ele>
        <time>2013-12-15T09:31:44Z</time>
      </trkpt>
      <trkpt lat="42.7824" lon="0.13952">
        <ele>1880.416626</ele>
        <time>2013-12-15T09:31:55Z</time>
      </trkpt>
      <trkpt lat="42.78233" lon="0.13944">
        <ele>1880.416626</ele>
        <time>2013-12-15T09:32:05Z</time>
      </trkpt>
      <trkpt lat="42.7823" lon="0.13932">
        <ele>1880.416626</ele>
        <time>2013-12-15T09:32:16Z</time>
      </trkpt>
      <trkpt lat="42.78221" lon="0.13926">
        <ele>1880.416626</ele>
        <time>2013-12-15T09:32:25Z</time>
      </trkpt>
      <trkpt lat="42.78212" lon="0.13921">
        <ele>1880.416626</ele>
        <time>2013-12-15T09:32:33Z</time>
      </trkpt>
      <trkpt lat="42.78208" lon="0.13909">
        <ele>1880.416626</ele>
        <time>2013-12-15T09:32:51Z</time>
      </trkpt>
      <trkpt lat="42.782" lon="0.13903">
        <ele>1884.75</ele>
        <time>2013-12-15T09:33:00Z</time>
      </trkpt>
      <trkpt lat="42.78191" lon="0.13896">
        <ele>1884.75</ele>
        <time>2013-12-15T09:33:08Z</time>
      </trkpt>
      <trkpt lat="42.78184" lon="0.13887">
        <ele>1884.75</ele>
        <time>2013-12-15T09:33:18Z</time>
      </trkpt>
      <trkpt lat="42.78178" lon="0.13878">
        <ele>1884.75</ele>
        <time>2013-12-15T09:33:24Z</time>
      </trkpt>
      <trkpt lat="42.7817" lon="0.13871">
        <ele>1884.75</ele>
        <time>2013-12-15T09:33:36Z</time>
      </trkpt>
      <trkpt lat="42.78163" lon="0.13863">
        <ele>1884.75</ele>
        <time>2013-12-15T09:33:49Z</time>
      </trkpt>
      <trkpt lat="42.78157" lon="0.13853">
        <ele>1884.75</ele>
        <time>2013-12-15T09:34:03Z</time>
      </trkpt>
      <trkpt lat="42.78137" lon="0.13829">
        <ele>1890.166626</ele>
        <time>2013-12-15T09:39:49Z</time>
      </trkpt>
      <trkpt lat="42.78129" lon="0.13822">
        <ele>1890.166626</ele>
        <time>2013-12-15T09:39:58Z</time>
      </trkpt>
      <trkpt lat="42.78121" lon="0.13814">
        <ele>1890.166626</ele>
        <time>2013-12-15T09:40:08Z</time>
      </trkpt>
      <trkpt lat="42.78113" lon="0.13808">
        <ele>1890.166626</ele>
        <time>2013-12-15T09:40:15Z</time>
      </trkpt>
      <trkpt lat="42.78105" lon="0.13801">
        <ele>1890.166626</ele>
        <time>2013-12-15T09:40:24Z</time>
      </trkpt>
      <trkpt lat="42.78098" lon="0.13794">
        <ele>1887.916626</ele>
        <time>2013-12-15T09:40:33Z</time>
      </trkpt>
      <trkpt lat="42.7809" lon="0.13787">
        <ele>1887.916626</ele>
        <time>2013-12-15T09:40:48Z</time>
      </trkpt>
      <trkpt lat="42.78083" lon="0.1378">
        <ele>1887.916626</ele>
        <time>2013-12-15T09:40:58Z</time>
      </trkpt>
      <trkpt lat="42.78074" lon="0.13775">
        <ele>1887.916626</ele>
        <time>2013-12-15T09:41:12Z</time>
      </trkpt>
      <trkpt lat="42.78063" lon="0.13769">
        <ele>1887.916626</ele>
        <time>2013-12-15T09:41:18Z</time>
      </trkpt>
      <trkpt lat="42.78055" lon="0.13763">
        <ele>1887.916626</ele>
        <time>2013-12-15T09:41:24Z</time>
      </trkpt>
      <trkpt lat="42.78048" lon="0.13754">
        <ele>1889.416626</ele>
        <time>2013-12-15T09:41:32Z</time>
      </trkpt>
      <trkpt lat="42.78039" lon="0.1375">
        <ele>1889.416626</ele>
        <time>2013-12-15T09:41:39Z</time>
      </trkpt>
      <trkpt lat="42.78032" lon="0.13742">
        <ele>1889.416626</ele>
        <time>2013-12-15T09:41:46Z</time>
      </trkpt>
      <trkpt lat="42.78026" lon="0.13732">
        <ele>1889.416626</ele>
        <time>2013-12-15T09:41:56Z</time>
      </trkpt>
      <trkpt lat="42.78022" lon="0.1372">
        <ele>1889</ele>
        <time>2013-12-15T09:42:08Z</time>
      </trkpt>
      <trkpt lat="42.78015" lon="0.13711">
        <ele>1889</ele>
        <time>2013-12-15T09:42:19Z</time>
      </trkpt>
      <trkpt lat="42.78007" lon="0.13704">
        <ele>1883.75</ele>
        <time>2013-12-15T09:42:29Z</time>
      </trkpt>
      <trkpt lat="42.77999" lon="0.137">
        <ele>1886.666626</ele>
        <time>2013-12-15T09:42:40Z</time>
      </trkpt>
      <trkpt lat="42.77991" lon="0.13691">
        <ele>1886.666626</ele>
        <time>2013-12-15T09:42:51Z</time>
      </trkpt>
      <trkpt lat="42.77983" lon="0.13686">
        <ele>1886.666626</ele>
        <time>2013-12-15T09:42:59Z</time>
      </trkpt>
      <trkpt lat="42.77973" lon="0.13683">
        <ele>1886.666626</ele>
        <time>2013-12-15T09:43:08Z</time>
      </trkpt>
      <trkpt lat="42.77964" lon="0.13677">
        <ele>1886.666626</ele>
        <time>2013-12-15T09:43:25Z</time>
      </trkpt>
      <trkpt lat="42.77955" lon="0.13674">
        <ele>1893.333374</ele>
        <time>2013-12-15T09:43:35Z</time>
      </trkpt>
      <trkpt lat="42.77945" lon="0.13671">
        <ele>1893.333374</ele>
        <time>2013-12-15T09:43:45Z</time>
      </trkpt>
      <trkpt lat="42.77937" lon="0.13666">
        <ele>1893.333374</ele>
        <time>2013-12-15T09:43:54Z</time>
      </trkpt>
      <trkpt lat="42.77927" lon="0.13666">
        <ele>1893.333374</ele>
        <time>2013-12-15T09:44:04Z</time>
      </trkpt>
      <trkpt lat="42.77918" lon="0.13661">
        <ele>1893.333374</ele>
        <time>2013-12-15T09:44:15Z</time>
      </trkpt>
      <trkpt lat="42.77911" lon="0.13654">
        <ele>1893.333374</ele>
        <time>2013-12-15T09:44:28Z</time>
      </trkpt>
      <trkpt lat="42.77902" lon="0.13649">
        <ele>1889.583374</ele>
        <time>2013-12-15T09:44:37Z</time>
      </trkpt>
      <trkpt lat="42.77893" lon="0.13643">
        <ele>1889.583374</ele>
        <time>2013-12-15T09:44:47Z</time>
      </trkpt>
      <trkpt lat="42.77885" lon="0.13636">
        <ele>1889.583374</ele>
        <time>2013-12-15T09:44:55Z</time>
      </trkpt>
      <trkpt lat="42.77876" lon="0.13633">
        <ele>1889.583374</ele>
        <time>2013-12-15T09:45:07Z</time>
      </trkpt>
      <trkpt lat="42.77868" lon="0.13628">
        <ele>1889.583374</ele>
        <time>2013-12-15T09:45:23Z</time>
      </trkpt>
      <trkpt lat="42.77857" lon="0.13622">
        <ele>1889.583374</ele>
        <time>2013-12-15T09:45:37Z</time>
      </trkpt>
      <trkpt lat="42.77855" lon="0.13613">
        <ele>1889.583374</ele>
        <time>2013-12-15T09:45:53Z</time>
      </trkpt>
      <trkpt lat="42.77812" lon="0.1357">
        <ele>1884.75</ele>
        <time>2013-12-15T09:49:20Z</time>
      </trkpt>
      <trkpt lat="42.77803" lon="0.13573">
        <ele>1884.75</ele>
        <time>2013-12-15T09:49:35Z</time>
      </trkpt>
      <trkpt lat="42.77767" lon="0.13577">
        <ele>1884.75</ele>
        <time>2013-12-15T09:50:50Z</time>
      </trkpt>
      <trkpt lat="42.77758" lon="0.13574">
        <ele>1884.75</ele>
        <time>2013-12-15T09:51:05Z</time>
      </trkpt>
      <trkpt lat="42.77748" lon="0.13575">
        <ele>1884.75</ele>
        <time>2013-12-15T09:51:17Z</time>
      </trkpt>
      <trkpt lat="42.77742" lon="0.13567">
        <ele>1886.166626</ele>
        <time>2013-12-15T09:51:35Z</time>
      </trkpt>
      <trkpt lat="42.77732" lon="0.13567">
        <ele>1886.166626</ele>
        <time>2013-12-15T09:51:48Z</time>
      </trkpt>
      <trkpt lat="42.77723" lon="0.13569">
        <ele>1886.166626</ele>
        <time>2013-12-15T09:51:53Z</time>
      </trkpt>
      <trkpt lat="42.77716" lon="0.13561">
        <ele>1886.166626</ele>
        <time>2013-12-15T09:52:11Z</time>
      </trkpt>
      <trkpt lat="42.77708" lon="0.13554">
        <ele>1886.166626</ele>
        <time>2013-12-15T09:52:28Z</time>
      </trkpt>
      <trkpt lat="42.77669" lon="0.13533">
        <ele>1886.166626</ele>
        <time>2013-12-15T09:57:00Z</time>
      </trkpt>
      <trkpt lat="42.77658" lon="0.13534">
        <ele>1877.333374</ele>
        <time>2013-12-15T09:57:05Z</time>
      </trkpt>
      <trkpt lat="42.7765" lon="0.13537">
        <ele>1877.333374</ele>
        <time>2013-12-15T09:57:15Z</time>
      </trkpt>
      <trkpt lat="42.77637" lon="0.13509">
        <ele>1877.333374</ele>
        <time>2013-12-15T09:58:01Z</time>
      </trkpt>
      <trkpt lat="42.7761" lon="0.13519">
        <ele>1877.333374</ele>
        <time>2013-12-15T09:58:51Z</time>
      </trkpt>
      <trkpt lat="42.77601" lon="0.13519">
        <ele>1877.333374</ele>
        <time>2013-12-15T09:59:00Z</time>
      </trkpt>
      <trkpt lat="42.77593" lon="0.13527">
        <ele>1873.916626</ele>
        <time>2013-12-15T09:59:09Z</time>
      </trkpt>
      <trkpt lat="42.77578" lon="0.13546">
        <ele>1873.916626</ele>
        <time>2013-12-15T09:59:15Z</time>
      </trkpt>
      <trkpt lat="42.77575" lon="0.13534">
        <ele>1873.916626</ele>
        <time>2013-12-15T09:59:20Z</time>
      </trkpt>
      <trkpt lat="42.77571" lon="0.13522">
        <ele>1881.5</ele>
        <time>2013-12-15T09:59:26Z</time>
      </trkpt>
      <trkpt lat="42.77565" lon="0.13513">
        <ele>1881.5</ele>
        <time>2013-12-15T09:59:38Z</time>
      </trkpt>
      <trkpt lat="42.77539" lon="0.13504">
        <ele>1887.083374</ele>
        <time>2013-12-15T10:00:30Z</time>
      </trkpt>
      <trkpt lat="42.77529" lon="0.13503">
        <ele>1888.25</ele>
        <time>2013-12-15T10:00:41Z</time>
      </trkpt>
      <trkpt lat="42.7752" lon="0.13503">
        <ele>1888.25</ele>
        <time>2013-12-15T10:00:54Z</time>
      </trkpt>
      <trkpt lat="42.7751" lon="0.13503">
        <ele>1888.25</ele>
        <time>2013-12-15T10:01:07Z</time>
      </trkpt>
      <trkpt lat="42.77493" lon="0.13498">
        <ele>1899.416626</ele>
        <time>2013-12-15T10:01:38Z</time>
      </trkpt>
      <trkpt lat="42.77484" lon="0.13493">
        <ele>1899.416626</ele>
        <time>2013-12-15T10:01:52Z</time>
      </trkpt>
      <trkpt lat="42.77475" lon="0.13487">
        <ele>1899.416626</ele>
        <time>2013-12-15T10:02:04Z</time>
      </trkpt>
      <trkpt lat="42.77469" lon="0.13478">
        <ele>1899.416626</ele>
        <time>2013-12-15T10:02:14Z</time>
      </trkpt>
      <trkpt lat="42.77472" lon="0.13467">
        <ele>1904</ele>
        <time>2013-12-15T10:02:31Z</time>
      </trkpt>
      <trkpt lat="42.77467" lon="0.13455">
        <ele>1905</ele>
        <time>2013-12-15T10:02:44Z</time>
      </trkpt>
      <trkpt lat="42.7746" lon="0.13447">
        <ele>1905</ele>
        <time>2013-12-15T10:03:00Z</time>
      </trkpt>
      <trkpt lat="42.7745" lon="0.13449">
        <ele>1906.833374</ele>
        <time>2013-12-15T10:07:08Z</time>
      </trkpt>
      <trkpt lat="42.77442" lon="0.13456">
        <ele>1906.833374</ele>
        <time>2013-12-15T10:07:21Z</time>
      </trkpt>
      <trkpt lat="42.77433" lon="0.13461">
        <ele>1906.833374</ele>
        <time>2013-12-15T10:07:31Z</time>
      </trkpt>
      <trkpt lat="42.77421" lon="0.13467">
        <ele>1906.833374</ele>
        <time>2013-12-15T10:07:51Z</time>
      </trkpt>
      <trkpt lat="42.77412" lon="0.13471">
        <ele>1914.583374</ele>
        <time>2013-12-15T10:08:05Z</time>
      </trkpt>
      <trkpt lat="42.77403" lon="0.13477">
        <ele>1923.5</ele>
        <time>2013-12-15T10:08:18Z</time>
      </trkpt>
      <trkpt lat="42.77395" lon="0.13484">
        <ele>1923.5</ele>
        <time>2013-12-15T10:08:25Z</time>
      </trkpt>
      <trkpt lat="42.77386" lon="0.13483">
        <ele>1923.5</ele>
        <time>2013-12-15T10:08:39Z</time>
      </trkpt>
      <trkpt lat="42.77336" lon="0.13509">
        <ele>1923.5</ele>
        <time>2013-12-15T10:10:28Z</time>
      </trkpt>
      <trkpt lat="42.77299" lon="0.13505">
        <ele>1923.5</ele>
        <time>2013-12-15T10:11:51Z</time>
      </trkpt>
      <trkpt lat="42.77246" lon="0.13523">
        <ele>1923.083374</ele>
        <time>2013-12-15T10:18:18Z</time>
      </trkpt>
      <trkpt lat="42.77238" lon="0.13526">
        <ele>1923.083374</ele>
        <time>2013-12-15T10:18:35Z</time>
      </trkpt>
      <trkpt lat="42.77192" lon="0.13504">
        <ele>1929.416626</ele>
        <time>2013-12-15T10:20:38Z</time>
      </trkpt>
      <trkpt lat="42.77164" lon="0.13506">
        <ele>1929.416626</ele>
        <time>2013-12-15T10:21:28Z</time>
      </trkpt>
      <trkpt lat="42.77157" lon="0.13498">
        <ele>1929.416626</ele>
        <time>2013-12-15T10:21:40Z</time>
      </trkpt>
      <trkpt lat="42.7715" lon="0.13489">
        <ele>1929.416626</ele>
        <time>2013-12-15T10:21:49Z</time>
      </trkpt>
      <trkpt lat="42.77144" lon="0.13479">
        <ele>1933.166626</ele>
        <time>2013-12-15T10:22:05Z</time>
      </trkpt>
      <trkpt lat="42.77138" lon="0.1347">
        <ele>1933.166626</ele>
        <time>2013-12-15T10:22:16Z</time>
      </trkpt>
      <trkpt lat="42.77132" lon="0.1346">
        <ele>1933.166626</ele>
        <time>2013-12-15T10:22:27Z</time>
      </trkpt>
      <trkpt lat="42.77125" lon="0.13452">
        <ele>1933.166626</ele>
        <time>2013-12-15T10:22:45Z</time>
      </trkpt>
      <trkpt lat="42.77118" lon="0.13444">
        <ele>1930</ele>
        <time>2013-12-15T10:22:59Z</time>
      </trkpt>
      <trkpt lat="42.77104" lon="0.13411">
        <ele>1930</ele>
        <time>2013-12-15T10:24:05Z</time>
      </trkpt>
      <trkpt lat="42.77096" lon="0.13404">
        <ele>1930</ele>
        <time>2013-12-15T10:24:20Z</time>
      </trkpt>
      <trkpt lat="42.7707" lon="0.13363">
        <ele>1936</ele>
        <time>2013-12-15T10:25:52Z</time>
      </trkpt>
      <trkpt lat="42.77033" lon="0.13333">
        <ele>1940</ele>
        <time>2013-12-15T10:39:00Z</time>
      </trkpt>
      <trkpt lat="42.77024" lon="0.13335">
        <ele>1940</ele>
        <time>2013-12-15T10:39:17Z</time>
      </trkpt>
      <trkpt lat="42.77015" lon="0.13336">
        <ele>1940</ele>
        <time>2013-12-15T10:39:35Z</time>
      </trkpt>
      <trkpt lat="42.77007" lon="0.13345">
        <ele>1932.916626</ele>
        <time>2013-12-15T10:39:48Z</time>
      </trkpt>
      <trkpt lat="42.76999" lon="0.13352">
        <ele>1932.916626</ele>
        <time>2013-12-15T10:39:55Z</time>
      </trkpt>
      <trkpt lat="42.7699" lon="0.13358">
        <ele>1932.916626</ele>
        <time>2013-12-15T10:40:12Z</time>
      </trkpt>
      <trkpt lat="42.76982" lon="0.13364">
        <ele>1932.916626</ele>
        <time>2013-12-15T10:40:28Z</time>
      </trkpt>
      <trkpt lat="42.76958" lon="0.13381">
        <ele>1935.583374</ele>
        <time>2013-12-15T10:41:17Z</time>
      </trkpt>
      <trkpt lat="42.76955" lon="0.13393">
        <ele>1935.583374</ele>
        <time>2013-12-15T10:41:34Z</time>
      </trkpt>
      <trkpt lat="42.76949" lon="0.13403">
        <ele>1952.583374</ele>
        <time>2013-12-15T10:41:44Z</time>
      </trkpt>
      <trkpt lat="42.76941" lon="0.13412">
        <ele>1952.583374</ele>
        <time>2013-12-15T10:41:51Z</time>
      </trkpt>
      <trkpt lat="42.76933" lon="0.13419">
        <ele>1956.333374</ele>
        <time>2013-12-15T10:41:59Z</time>
      </trkpt>
      <trkpt lat="42.76926" lon="0.13426">
        <ele>1975</ele>
        <time>2013-12-15T10:42:11Z</time>
      </trkpt>
      <trkpt lat="42.76918" lon="0.13433">
        <ele>1974.75</ele>
        <time>2013-12-15T10:42:25Z</time>
      </trkpt>
      <trkpt lat="42.7689" lon="0.13451">
        <ele>1974</ele>
        <time>2013-12-15T10:47:40Z</time>
      </trkpt>
      <trkpt lat="42.76881" lon="0.13455">
        <ele>1981.083374</ele>
        <time>2013-12-15T10:47:52Z</time>
      </trkpt>
      <trkpt lat="42.76872" lon="0.13458">
        <ele>1992.25</ele>
        <time>2013-12-15T10:48:03Z</time>
      </trkpt>
      <trkpt lat="42.76864" lon="0.13464">
        <ele>1992.25</ele>
        <time>2013-12-15T10:48:18Z</time>
      </trkpt>
      <trkpt lat="42.76856" lon="0.13471">
        <ele>1994.416626</ele>
        <time>2013-12-15T10:48:29Z</time>
      </trkpt>
      <trkpt lat="42.76849" lon="0.13481">
        <ele>1994.5</ele>
        <time>2013-12-15T10:48:36Z</time>
      </trkpt>
      <trkpt lat="42.7684" lon="0.13476">
        <ele>1994.5</ele>
        <time>2013-12-15T10:48:44Z</time>
      </trkpt>
      <trkpt lat="42.76831" lon="0.13482">
        <ele>2004.583374</ele>
        <time>2013-12-15T10:48:52Z</time>
      </trkpt>
      <trkpt lat="42.76824" lon="0.13491">
        <ele>2004.583374</ele>
        <time>2013-12-15T10:49:05Z</time>
      </trkpt>
      <trkpt lat="42.76815" lon="0.13495">
        <ele>2004.583374</ele>
        <time>2013-12-15T10:49:18Z</time>
      </trkpt>
      <trkpt lat="42.76808" lon="0.13503">
        <ele>2004.583374</ele>
        <time>2013-12-15T10:49:25Z</time>
      </trkpt>
      <trkpt lat="42.768" lon="0.13509">
        <ele>2004.583374</ele>
        <time>2013-12-15T10:49:34Z</time>
      </trkpt>
      <trkpt lat="42.76792" lon="0.13519">
        <ele>2012.833374</ele>
        <time>2013-12-15T10:49:48Z</time>
      </trkpt>
      <trkpt lat="42.76788" lon="0.13531">
        <ele>2012.833374</ele>
        <time>2013-12-15T10:49:57Z</time>
      </trkpt>
      <trkpt lat="42.76783" lon="0.13542">
        <ele>2012.833374</ele>
        <time>2013-12-15T10:50:07Z</time>
      </trkpt>
      <trkpt lat="42.76775" lon="0.13549">
        <ele>2017.416626</ele>
        <time>2013-12-15T10:50:17Z</time>
      </trkpt>
      <trkpt lat="42.76771" lon="0.13561">
        <ele>2017.416626</ele>
        <time>2013-12-15T10:50:32Z</time>
      </trkpt>
      <trkpt lat="42.76777" lon="0.13588">
        <ele>2032.583374</ele>
        <time>2013-12-15T11:34:08Z</time>
      </trkpt>
      <trkpt lat="42.76784" lon="0.13596">
        <ele>2039</ele>
        <time>2013-12-15T11:34:22Z</time>
      </trkpt>
      <trkpt lat="42.76793" lon="0.13595">
        <ele>2039</ele>
        <time>2013-12-15T11:34:30Z</time>
      </trkpt>
      <trkpt lat="42.76803" lon="0.13595">
        <ele>2039</ele>
        <time>2013-12-15T11:34:43Z</time>
      </trkpt>
      <trkpt lat="42.7681" lon="0.13602">
        <ele>2039</ele>
        <time>2013-12-15T11:34:52Z</time>
      </trkpt>
      <trkpt lat="42.76815" lon="0.13615">
        <ele>2039</ele>
        <time>2013-12-15T11:35:05Z</time>
      </trkpt>
      <trkpt lat="42.76825" lon="0.13615">
        <ele>2039</ele>
        <time>2013-12-15T11:35:17Z</time>
      </trkpt>
      <trkpt lat="42.76834" lon="0.13614">
        <ele>2039</ele>
        <time>2013-12-15T11:35:26Z</time>
      </trkpt>
      <trkpt lat="42.76844" lon="0.13613">
        <ele>2039</ele>
        <time>2013-12-15T11:35:32Z</time>
      </trkpt>
      <trkpt lat="42.76854" lon="0.13617">
        <ele>2039</ele>
        <time>2013-12-15T11:35:40Z</time>
      </trkpt>
      <trkpt lat="42.76863" lon="0.13621">
        <ele>2040.833374</ele>
        <time>2013-12-15T11:35:48Z</time>
      </trkpt>
      <trkpt lat="42.7687" lon="0.1363">
        <ele>2043</ele>
        <time>2013-12-15T11:36:02Z</time>
      </trkpt>
      <trkpt lat="42.76879" lon="0.13633">
        <ele>2043</ele>
        <time>2013-12-15T11:36:13Z</time>
      </trkpt>
      <trkpt lat="42.76889" lon="0.13635">
        <ele>2043</ele>
        <time>2013-12-15T11:36:22Z</time>
      </trkpt>
      <trkpt lat="42.76898" lon="0.13641">
        <ele>2043</ele>
        <time>2013-12-15T11:36:30Z</time>
      </trkpt>
      <trkpt lat="42.76907" lon="0.13646">
        <ele>2052.083252</ele>
        <time>2013-12-15T11:36:38Z</time>
      </trkpt>
      <trkpt lat="42.76917" lon="0.13651">
        <ele>2052.083252</ele>
        <time>2013-12-15T11:36:48Z</time>
      </trkpt>
      <trkpt lat="42.76926" lon="0.13651">
        <ele>2052.083252</ele>
        <time>2013-12-15T11:36:58Z</time>
      </trkpt>
      <trkpt lat="42.76948" lon="0.13664">
        <ele>2052.083252</ele>
        <time>2013-12-15T11:38:43Z</time>
      </trkpt>
      <trkpt lat="42.76956" lon="0.13669">
        <ele>2063</ele>
        <time>2013-12-15T11:38:56Z</time>
      </trkpt>
      <trkpt lat="42.76967" lon="0.1367">
        <ele>2063</ele>
        <time>2013-12-15T11:39:03Z</time>
      </trkpt>
      <trkpt lat="42.76976" lon="0.13667">
        <ele>2073.75</ele>
        <time>2013-12-15T11:39:14Z</time>
      </trkpt>
      <trkpt lat="42.76985" lon="0.13666">
        <ele>2073.75</ele>
        <time>2013-12-15T11:39:21Z</time>
      </trkpt>
      <trkpt lat="42.76994" lon="0.13668">
        <ele>2073.75</ele>
        <time>2013-12-15T11:39:30Z</time>
      </trkpt>
      <trkpt lat="42.77003" lon="0.13668">
        <ele>2073.75</ele>
        <time>2013-12-15T11:39:38Z</time>
      </trkpt>
      <trkpt lat="42.77041" lon="0.13634">
        <ele>2073.75</ele>
        <time>2013-12-15T11:41:24Z</time>
      </trkpt>
      <trkpt lat="42.7705" lon="0.13628">
        <ele>2079.25</ele>
        <time>2013-12-15T11:41:33Z</time>
      </trkpt>
      <trkpt lat="42.77057" lon="0.1362">
        <ele>2083</ele>
        <time>2013-12-15T11:41:44Z</time>
      </trkpt>
      <trkpt lat="42.77064" lon="0.13613">
        <ele>2083</ele>
        <time>2013-12-15T11:41:51Z</time>
      </trkpt>
      <trkpt lat="42.77073" lon="0.13608">
        <ele>2083</ele>
        <time>2013-12-15T11:42:02Z</time>
      </trkpt>
      <trkpt lat="42.77082" lon="0.13603">
        <ele>2083</ele>
        <time>2013-12-15T11:42:12Z</time>
      </trkpt>
      <trkpt lat="42.77091" lon="0.13596">
        <ele>2083</ele>
        <time>2013-12-15T11:42:23Z</time>
      </trkpt>
      <trkpt lat="42.771" lon="0.13592">
        <ele>2083</ele>
        <time>2013-12-15T11:42:33Z</time>
      </trkpt>
      <trkpt lat="42.77109" lon="0.13588">
        <ele>2083</ele>
        <time>2013-12-15T11:42:41Z</time>
      </trkpt>
      <trkpt lat="42.77118" lon="0.13586">
        <ele>2083</ele>
        <time>2013-12-15T11:42:52Z</time>
      </trkpt>
      <trkpt lat="42.77127" lon="0.13586">
        <ele>2088.583252</ele>
        <time>2013-12-15T11:43:03Z</time>
      </trkpt>
      <trkpt lat="42.77136" lon="0.13588">
        <ele>2088.583252</ele>
        <time>2013-12-15T11:43:12Z</time>
      </trkpt>
      <trkpt lat="42.77146" lon="0.13585">
        <ele>2088.583252</ele>
        <time>2013-12-15T11:43:20Z</time>
      </trkpt>
      <trkpt lat="42.7717" lon="0.13535">
        <ele>2088.583252</ele>
        <time>2013-12-15T11:49:08Z</time>
      </trkpt>
      <trkpt lat="42.77178" lon="0.1353">
        <ele>2088.583252</ele>
        <time>2013-12-15T11:49:25Z</time>
      </trkpt>
      <trkpt lat="42.77186" lon="0.13522">
        <ele>2088.583252</ele>
        <time>2013-12-15T11:49:32Z</time>
      </trkpt>
      <trkpt lat="42.77194" lon="0.13515">
        <ele>2083.416748</ele>
        <time>2013-12-15T11:49:39Z</time>
      </trkpt>
      <trkpt lat="42.77203" lon="0.13511">
        <ele>2083.416748</ele>
        <time>2013-12-15T11:49:49Z</time>
      </trkpt>
      <trkpt lat="42.77212" lon="0.13517">
        <ele>2083.416748</ele>
        <time>2013-12-15T11:49:56Z</time>
      </trkpt>
      <trkpt lat="42.77221" lon="0.1352">
        <ele>2083.416748</ele>
        <time>2013-12-15T11:50:08Z</time>
      </trkpt>
      <trkpt lat="42.77227" lon="0.13509">
        <ele>2083.416748</ele>
        <time>2013-12-15T11:50:18Z</time>
      </trkpt>
      <trkpt lat="42.77234" lon="0.13501">
        <ele>2083.416748</ele>
        <time>2013-12-15T11:50:27Z</time>
      </trkpt>
      <trkpt lat="42.77244" lon="0.13499">
        <ele>2078.583252</ele>
        <time>2013-12-15T11:50:37Z</time>
      </trkpt>
      <trkpt lat="42.77251" lon="0.13491">
        <ele>2081</ele>
        <time>2013-12-15T11:50:54Z</time>
      </trkpt>
      <trkpt lat="42.77258" lon="0.13482">
        <ele>2081</ele>
        <time>2013-12-15T11:51:04Z</time>
      </trkpt>
      <trkpt lat="42.77268" lon="0.1348">
        <ele>2078.166748</ele>
        <time>2013-12-15T11:51:12Z</time>
      </trkpt>
      <trkpt lat="42.77287" lon="0.13506">
        <ele>2076</ele>
        <time>2013-12-15T11:52:15Z</time>
      </trkpt>
      <trkpt lat="42.77313" lon="0.1351">
        <ele>2076</ele>
        <time>2013-12-15T11:54:52Z</time>
      </trkpt>
      <trkpt lat="42.7732" lon="0.13501">
        <ele>2076</ele>
        <time>2013-12-15T11:55:04Z</time>
      </trkpt>
      <trkpt lat="42.77329" lon="0.13498">
        <ele>2090</ele>
        <time>2013-12-15T11:55:12Z</time>
      </trkpt>
      <trkpt lat="42.77338" lon="0.13496">
        <ele>2090</ele>
        <time>2013-12-15T11:55:21Z</time>
      </trkpt>
      <trkpt lat="42.77347" lon="0.13491">
        <ele>2090</ele>
        <time>2013-12-15T11:55:29Z</time>
      </trkpt>
      <trkpt lat="42.77357" lon="0.13489">
        <ele>2090</ele>
        <time>2013-12-15T11:55:42Z</time>
      </trkpt>
      <trkpt lat="42.77366" lon="0.13487">
        <ele>2090</ele>
        <time>2013-12-15T11:55:51Z</time>
      </trkpt>
      <trkpt lat="42.77375" lon="0.13485">
        <ele>2077.25</ele>
        <time>2013-12-15T11:56:07Z</time>
      </trkpt>
      <trkpt lat="42.77384" lon="0.13486">
        <ele>2077.25</ele>
        <time>2013-12-15T11:56:15Z</time>
      </trkpt>
      <trkpt lat="42.77394" lon="0.13491">
        <ele>2077.25</ele>
        <time>2013-12-15T11:56:22Z</time>
      </trkpt>
      <trkpt lat="42.77402" lon="0.13495">
        <ele>2077.25</ele>
        <time>2013-12-15T11:56:35Z</time>
      </trkpt>
      <trkpt lat="42.77412" lon="0.13496">
        <ele>2077.25</ele>
        <time>2013-12-15T11:56:49Z</time>
      </trkpt>
      <trkpt lat="42.77421" lon="0.13492">
        <ele>2077.25</ele>
        <time>2013-12-15T11:56:58Z</time>
      </trkpt>
      <trkpt lat="42.77442" lon="0.13484">
        <ele>2077.5</ele>
        <time>2013-12-15T11:58:13Z</time>
      </trkpt>
      <trkpt lat="42.7745" lon="0.13479">
        <ele>2077.5</ele>
        <time>2013-12-15T11:58:19Z</time>
      </trkpt>
      <trkpt lat="42.77458" lon="0.13473">
        <ele>2077.5</ele>
        <time>2013-12-15T11:58:26Z</time>
      </trkpt>
      <trkpt lat="42.77453" lon="0.13437">
        <ele>2077.5</ele>
        <time>2013-12-15T11:59:09Z</time>
      </trkpt>
      <trkpt lat="42.77461" lon="0.13445">
        <ele>2077.5</ele>
        <time>2013-12-15T11:59:17Z</time>
      </trkpt>
      <trkpt lat="42.77475" lon="0.13462">
        <ele>2077.5</ele>
        <time>2013-12-15T11:59:28Z</time>
      </trkpt>
      <trkpt lat="42.77485" lon="0.13462">
        <ele>2077.5</ele>
        <time>2013-12-15T11:59:35Z</time>
      </trkpt>
      <trkpt lat="42.77492" lon="0.13473">
        <ele>2070.666748</ele>
        <time>2013-12-15T11:59:43Z</time>
      </trkpt>
      <trkpt lat="42.77501" lon="0.13476">
        <ele>2070.666748</ele>
        <time>2013-12-15T11:59:52Z</time>
      </trkpt>
      <trkpt lat="42.77508" lon="0.13487">
        <ele>2056.166748</ele>
        <time>2013-12-15T11:59:59Z</time>
      </trkpt>
      <trkpt lat="42.77514" lon="0.13495">
        <ele>2056.166748</ele>
        <time>2013-12-15T12:00:07Z</time>
      </trkpt>
      <trkpt lat="42.77524" lon="0.13495">
        <ele>2056.166748</ele>
        <time>2013-12-15T12:00:16Z</time>
      </trkpt>
      <trkpt lat="42.77532" lon="0.13501">
        <ele>2056.166748</ele>
        <time>2013-12-15T12:00:24Z</time>
      </trkpt>
      <trkpt lat="42.77541" lon="0.13505">
        <ele>2056.166748</ele>
        <time>2013-12-15T12:00:34Z</time>
      </trkpt>
      <trkpt lat="42.77552" lon="0.13501">
        <ele>2056.166748</ele>
        <time>2013-12-15T12:00:42Z</time>
      </trkpt>
      <trkpt lat="42.77581" lon="0.13522">
        <ele>2056.166748</ele>
        <time>2013-12-15T12:02:45Z</time>
      </trkpt>
      <trkpt lat="42.77591" lon="0.13517">
        <ele>2056.166748</ele>
        <time>2013-12-15T12:02:54Z</time>
      </trkpt>
      <trkpt lat="42.77601" lon="0.13515">
        <ele>2051.833252</ele>
        <time>2013-12-15T12:03:04Z</time>
      </trkpt>
      <trkpt lat="42.7761" lon="0.13514">
        <ele>2051.833252</ele>
        <time>2013-12-15T12:03:21Z</time>
      </trkpt>
      <trkpt lat="42.77615" lon="0.13503">
        <ele>2050.583252</ele>
        <time>2013-12-15T12:03:29Z</time>
      </trkpt>
      <trkpt lat="42.77624" lon="0.13498">
        <ele>2050.583252</ele>
        <time>2013-12-15T12:03:37Z</time>
      </trkpt>
      <trkpt lat="42.77628" lon="0.1351">
        <ele>2050.583252</ele>
        <time>2013-12-15T12:03:47Z</time>
      </trkpt>
      <trkpt lat="42.77637" lon="0.13517">
        <ele>2050.583252</ele>
        <time>2013-12-15T12:04:02Z</time>
      </trkpt>
      <trkpt lat="42.77643" lon="0.13527">
        <ele>2050.583252</ele>
        <time>2013-12-15T12:04:09Z</time>
      </trkpt>
      <trkpt lat="42.77653" lon="0.13526">
        <ele>2050.583252</ele>
        <time>2013-12-15T12:04:18Z</time>
      </trkpt>
      <trkpt lat="42.77662" lon="0.13524">
        <ele>2035.166626</ele>
        <time>2013-12-15T12:04:25Z</time>
      </trkpt>
      <trkpt lat="42.77671" lon="0.13522">
        <ele>2035.166626</ele>
        <time>2013-12-15T12:04:33Z</time>
      </trkpt>
      <trkpt lat="42.7768" lon="0.13527">
        <ele>2035.166626</ele>
        <time>2013-12-15T12:04:43Z</time>
      </trkpt>
      <trkpt lat="42.77689" lon="0.13533">
        <ele>2035.166626</ele>
        <time>2013-12-15T12:04:51Z</time>
      </trkpt>
      <trkpt lat="42.77697" lon="0.13539">
        <ele>2035.166626</ele>
        <time>2013-12-15T12:05:01Z</time>
      </trkpt>
      <trkpt lat="42.77706" lon="0.13545">
        <ele>2000.583374</ele>
        <time>2013-12-15T12:05:10Z</time>
      </trkpt>
      <trkpt lat="42.77714" lon="0.13552">
        <ele>2001</ele>
        <time>2013-12-15T12:05:20Z</time>
      </trkpt>
      <trkpt lat="42.77722" lon="0.13559">
        <ele>2001</ele>
        <time>2013-12-15T12:05:29Z</time>
      </trkpt>
      <trkpt lat="42.77731" lon="0.1356">
        <ele>2001</ele>
        <time>2013-12-15T12:05:39Z</time>
      </trkpt>
      <trkpt lat="42.77737" lon="0.13569">
        <ele>2001</ele>
        <time>2013-12-15T12:05:48Z</time>
      </trkpt>
      <trkpt lat="42.77745" lon="0.13576">
        <ele>2001</ele>
        <time>2013-12-15T12:05:55Z</time>
      </trkpt>
      <trkpt lat="42.77755" lon="0.13575">
        <ele>2001</ele>
        <time>2013-12-15T12:06:04Z</time>
      </trkpt>
      <trkpt lat="42.77764" lon="0.13572">
        <ele>2001</ele>
        <time>2013-12-15T12:06:12Z</time>
      </trkpt>
      <trkpt lat="42.77773" lon="0.13568">
        <ele>2000.5</ele>
        <time>2013-12-15T12:06:21Z</time>
      </trkpt>
      <trkpt lat="42.77782" lon="0.13567">
        <ele>2000.5</ele>
        <time>2013-12-15T12:06:33Z</time>
      </trkpt>
      <trkpt lat="42.77792" lon="0.13566">
        <ele>2000.5</ele>
        <time>2013-12-15T12:06:44Z</time>
      </trkpt>
      <trkpt lat="42.77801" lon="0.13569">
        <ele>2000.5</ele>
        <time>2013-12-15T12:06:53Z</time>
      </trkpt>
      <trkpt lat="42.7781" lon="0.13575">
        <ele>2000.5</ele>
        <time>2013-12-15T12:07:01Z</time>
      </trkpt>
      <trkpt lat="42.77819" lon="0.13575">
        <ele>2000.5</ele>
        <time>2013-12-15T12:07:09Z</time>
      </trkpt>
      <trkpt lat="42.77826" lon="0.13585">
        <ele>1992.166626</ele>
        <time>2013-12-15T12:07:22Z</time>
      </trkpt>
      <trkpt lat="42.77831" lon="0.13598">
        <ele>1992.166626</ele>
        <time>2013-12-15T12:07:29Z</time>
      </trkpt>
      <trkpt lat="42.77834" lon="0.1361">
        <ele>1992.166626</ele>
        <time>2013-12-15T12:07:35Z</time>
      </trkpt>
      <trkpt lat="42.7784" lon="0.1362">
        <ele>1987.916626</ele>
        <time>2013-12-15T12:07:45Z</time>
      </trkpt>
      <trkpt lat="42.77848" lon="0.13627">
        <ele>1976.25</ele>
        <time>2013-12-15T12:07:59Z</time>
      </trkpt>
      <trkpt lat="42.77856" lon="0.13631">
        <ele>1976.25</ele>
        <time>2013-12-15T12:08:07Z</time>
      </trkpt>
      <trkpt lat="42.77865" lon="0.13636">
        <ele>1976.25</ele>
        <time>2013-12-15T12:08:19Z</time>
      </trkpt>
      <trkpt lat="42.77873" lon="0.13644">
        <ele>1976.25</ele>
        <time>2013-12-15T12:08:29Z</time>
      </trkpt>
      <trkpt lat="42.77882" lon="0.13648">
        <ele>1976.25</ele>
        <time>2013-12-15T12:08:42Z</time>
      </trkpt>
      <trkpt lat="42.77891" lon="0.13648">
        <ele>1976.25</ele>
        <time>2013-12-15T12:08:53Z</time>
      </trkpt>
      <trkpt lat="42.77897" lon="0.13659">
        <ele>1962.583374</ele>
        <time>2013-12-15T12:09:01Z</time>
      </trkpt>
      <trkpt lat="42.77902" lon="0.1367">
        <ele>1962.583374</ele>
        <time>2013-12-15T12:09:10Z</time>
      </trkpt>
      <trkpt lat="42.77921" lon="0.13697">
        <ele>1962.583374</ele>
        <time>2013-12-15T12:11:54Z</time>
      </trkpt>
      <trkpt lat="42.77925" lon="0.13709">
        <ele>1962.583374</ele>
        <time>2013-12-15T12:12:08Z</time>
      </trkpt>
      <trkpt lat="42.77931" lon="0.13719">
        <ele>1962.583374</ele>
        <time>2013-12-15T12:12:16Z</time>
      </trkpt>
      <trkpt lat="42.77938" lon="0.13728">
        <ele>1962.583374</ele>
        <time>2013-12-15T12:12:24Z</time>
      </trkpt>
      <trkpt lat="42.77943" lon="0.13739">
        <ele>1953.916626</ele>
        <time>2013-12-15T12:12:37Z</time>
      </trkpt>
      <trkpt lat="42.77952" lon="0.13742">
        <ele>1953.916626</ele>
        <time>2013-12-15T12:12:48Z</time>
      </trkpt>
      <trkpt lat="42.77961" lon="0.13741">
        <ele>1935.666626</ele>
        <time>2013-12-15T12:13:00Z</time>
      </trkpt>
      <trkpt lat="42.7797" lon="0.13746">
        <ele>1935.666626</ele>
        <time>2013-12-15T12:13:12Z</time>
      </trkpt>
      <trkpt lat="42.77977" lon="0.13755">
        <ele>1935.666626</ele>
        <time>2013-12-15T12:13:21Z</time>
      </trkpt>
      <trkpt lat="42.77982" lon="0.13765">
        <ele>1928.416626</ele>
        <time>2013-12-15T12:13:38Z</time>
      </trkpt>
      <trkpt lat="42.7798" lon="0.13803">
        <ele>1928.416626</ele>
        <time>2013-12-15T12:14:51Z</time>
      </trkpt>
      <trkpt lat="42.77981" lon="0.13815">
        <ele>1928.416626</ele>
        <time>2013-12-15T12:15:01Z</time>
      </trkpt>
      <trkpt lat="42.77988" lon="0.13825">
        <ele>1928.416626</ele>
        <time>2013-12-15T12:15:14Z</time>
      </trkpt>
      <trkpt lat="42.77994" lon="0.13834">
        <ele>1930.833374</ele>
        <time>2013-12-15T12:15:25Z</time>
      </trkpt>
      <trkpt lat="42.78001" lon="0.13842">
        <ele>1930.833374</ele>
        <time>2013-12-15T12:15:36Z</time>
      </trkpt>
      <trkpt lat="42.78009" lon="0.13852">
        <ele>1930.833374</ele>
        <time>2013-12-15T12:15:48Z</time>
      </trkpt>
      <trkpt lat="42.78013" lon="0.13863">
        <ele>1930.833374</ele>
        <time>2013-12-15T12:15:58Z</time>
      </trkpt>
      <trkpt lat="42.78021" lon="0.13867">
        <ele>1930.833374</ele>
        <time>2013-12-15T12:16:13Z</time>
      </trkpt>
      <trkpt lat="42.7803" lon="0.13873">
        <ele>1930.833374</ele>
        <time>2013-12-15T12:16:27Z</time>
      </trkpt>
      <trkpt lat="42.78053" lon="0.13885">
        <ele>1930.833374</ele>
        <time>2013-12-15T12:18:06Z</time>
      </trkpt>
      <trkpt lat="42.78061" lon="0.13891">
        <ele>1930.25</ele>
        <time>2013-12-15T12:18:16Z</time>
      </trkpt>
      <trkpt lat="42.78068" lon="0.13899">
        <ele>1925</ele>
        <time>2013-12-15T12:18:27Z</time>
      </trkpt>
      <trkpt lat="42.78076" lon="0.13905">
        <ele>1925</ele>
        <time>2013-12-15T12:18:38Z</time>
      </trkpt>
      <trkpt lat="42.78084" lon="0.1391">
        <ele>1925</ele>
        <time>2013-12-15T12:18:46Z</time>
      </trkpt>
      <trkpt lat="42.78092" lon="0.13917">
        <ele>1925</ele>
        <time>2013-12-15T12:19:01Z</time>
      </trkpt>
      <trkpt lat="42.78098" lon="0.13927">
        <ele>1925</ele>
        <time>2013-12-15T12:19:13Z</time>
      </trkpt>
      <trkpt lat="42.78103" lon="0.13938">
        <ele>1925</ele>
        <time>2013-12-15T12:19:27Z</time>
      </trkpt>
      <trkpt lat="42.78111" lon="0.13945">
        <ele>1925</ele>
        <time>2013-12-15T12:19:43Z</time>
      </trkpt>
      <trkpt lat="42.78133" lon="0.13979">
        <ele>1917.083374</ele>
        <time>2013-12-15T12:22:36Z</time>
      </trkpt>
      <trkpt lat="42.7814" lon="0.13988">
        <ele>1917.083374</ele>
        <time>2013-12-15T12:22:44Z</time>
      </trkpt>
      <trkpt lat="42.78152" lon="0.14008">
        <ele>1917.083374</ele>
        <time>2013-12-15T12:23:17Z</time>
      </trkpt>
      <trkpt lat="42.78161" lon="0.14012">
        <ele>1917.083374</ele>
        <time>2013-12-15T12:23:29Z</time>
      </trkpt>
      <trkpt lat="42.78164" lon="0.14024">
        <ele>1917.083374</ele>
        <time>2013-12-15T12:23:43Z</time>
      </trkpt>
      <trkpt lat="42.78167" lon="0.14036">
        <ele>1917.083374</ele>
        <time>2013-12-15T12:23:52Z</time>
      </trkpt>
      <trkpt lat="42.78174" lon="0.14045">
        <ele>1910.666626</ele>
        <time>2013-12-15T12:24:11Z</time>
      </trkpt>
      <trkpt lat="42.7818" lon="0.14054">
        <ele>1910.666626</ele>
        <time>2013-12-15T12:24:20Z</time>
      </trkpt>
      <trkpt lat="42.7819" lon="0.14063">
        <ele>1910.666626</ele>
        <time>2013-12-15T12:24:27Z</time>
      </trkpt>
      <trkpt lat="42.78196" lon="0.14073">
        <ele>1910.666626</ele>
        <time>2013-12-15T12:24:38Z</time>
      </trkpt>
      <trkpt lat="42.78204" lon="0.14081">
        <ele>1910.666626</ele>
        <time>2013-12-15T12:24:51Z</time>
      </trkpt>
      <trkpt lat="42.78213" lon="0.14081">
        <ele>1910.666626</ele>
        <time>2013-12-15T12:25:07Z</time>
      </trkpt>
      <trkpt lat="42.78222" lon="0.14078">
        <ele>1910.666626</ele>
        <time>2013-12-15T12:25:18Z</time>
      </trkpt>
      <trkpt lat="42.78227" lon="0.14088">
        <ele>1904.333374</ele>
        <time>2013-12-15T12:25:31Z</time>
      </trkpt>
      <trkpt lat="42.78255" lon="0.14086">
        <ele>1904.333374</ele>
        <time>2013-12-15T12:26:26Z</time>
      </trkpt>
      <trkpt lat="42.78264" lon="0.1409">
        <ele>1904.333374</ele>
        <time>2013-12-15T12:26:35Z</time>
      </trkpt>
      <trkpt lat="42.78274" lon="0.14094">
        <ele>1904.333374</ele>
        <time>2013-12-15T12:26:51Z</time>
      </trkpt>
      <trkpt lat="42.78282" lon="0.141">
        <ele>1904.333374</ele>
        <time>2013-12-15T12:27:01Z</time>
      </trkpt>
      <trkpt lat="42.78292" lon="0.141">
        <ele>1904.333374</ele>
        <time>2013-12-15T12:27:14Z</time>
      </trkpt>
      <trkpt lat="42.783" lon="0.14108">
        <ele>1900.5</ele>
        <time>2013-12-15T12:27:31Z</time>
      </trkpt>
      <trkpt lat="42.78308" lon="0.14115">
        <ele>1900.5</ele>
        <time>2013-12-15T12:27:49Z</time>
      </trkpt>
      <trkpt lat="42.78318" lon="0.14171">
        <ele>1900.5</ele>
        <time>2013-12-15T12:32:43Z</time>
      </trkpt>
      <trkpt lat="42.78326" lon="0.14178">
        <ele>1900.5</ele>
        <time>2013-12-15T12:32:52Z</time>
      </trkpt>
      <trkpt lat="42.78333" lon="0.14188">
        <ele>1900.5</ele>
        <time>2013-12-15T12:32:59Z</time>
      </trkpt>
      <trkpt lat="42.78346" lon="0.14207">
        <ele>1900.5</ele>
        <time>2013-12-15T12:33:14Z</time>
      </trkpt>
      <trkpt lat="42.78354" lon="0.14214">
        <ele>1900.5</ele>
        <time>2013-12-15T12:33:23Z</time>
      </trkpt>
      <trkpt lat="42.7836" lon="0.14225">
        <ele>1879.166626</ele>
        <time>2013-12-15T12:33:38Z</time>
      </trkpt>
      <trkpt lat="42.78368" lon="0.14232">
        <ele>1879.166626</ele>
        <time>2013-12-15T12:33:44Z</time>
      </trkpt>
      <trkpt lat="42.78383" lon="0.1426">
        <ele>1879.166626</ele>
        <time>2013-12-15T12:36:20Z</time>
      </trkpt>
      <trkpt lat="42.78387" lon="0.14272">
        <ele>1879.166626</ele>
        <time>2013-12-15T12:36:27Z</time>
      </trkpt>
      <trkpt lat="42.78392" lon="0.14282">
        <ele>1879.166626</ele>
        <time>2013-12-15T12:36:37Z</time>
      </trkpt>
      <trkpt lat="42.78396" lon="0.14295">
        <ele>1876.75</ele>
        <time>2013-12-15T12:36:48Z</time>
      </trkpt>
      <trkpt lat="42.78398" lon="0.14307">
        <ele>1876.75</ele>
        <time>2013-12-15T12:36:57Z</time>
      </trkpt>
      <trkpt lat="42.78406" lon="0.14313">
        <ele>1876.75</ele>
        <time>2013-12-15T12:37:05Z</time>
      </trkpt>
      <trkpt lat="42.78415" lon="0.14311">
        <ele>1876.75</ele>
        <time>2013-12-15T12:37:14Z</time>
      </trkpt>
      <trkpt lat="42.78426" lon="0.14345">
        <ele>1867.166626</ele>
        <time>2013-12-15T12:38:31Z</time>
      </trkpt>
      <trkpt lat="42.7843" lon="0.14358">
        <ele>1867.166626</ele>
        <time>2013-12-15T12:38:40Z</time>
      </trkpt>
      <trkpt lat="42.78434" lon="0.14369">
        <ele>1867.166626</ele>
        <time>2013-12-15T12:38:51Z</time>
      </trkpt>
      <trkpt lat="42.78438" lon="0.14381">
        <ele>1867.166626</ele>
        <time>2013-12-15T12:39:08Z</time>
      </trkpt>
      <trkpt lat="42.78443" lon="0.14393">
        <ele>1867.166626</ele>
        <time>2013-12-15T12:39:15Z</time>
      </trkpt>
      <trkpt lat="42.78449" lon="0.14402">
        <ele>1867.166626</ele>
        <time>2013-12-15T12:39:22Z</time>
      </trkpt>
      <trkpt lat="42.78452" lon="0.14415">
        <ele>1862.666626</ele>
        <time>2013-12-15T12:39:30Z</time>
      </trkpt>
      <trkpt lat="42.78459" lon="0.14423">
        <ele>1862.666626</ele>
        <time>2013-12-15T12:39:42Z</time>
      </trkpt>
      <trkpt lat="42.78465" lon="0.14433">
        <ele>1862.666626</ele>
        <time>2013-12-15T12:39:48Z</time>
      </trkpt>
      <trkpt lat="42.78468" lon="0.14444">
        <ele>1862.666626</ele>
        <time>2013-12-15T12:39:58Z</time>
      </trkpt>
      <trkpt lat="42.78477" lon="0.1445">
        <ele>1862.666626</ele>
        <time>2013-12-15T12:40:06Z</time>
      </trkpt>
      <trkpt lat="42.78485" lon="0.14457">
        <ele>1838.166626</ele>
        <time>2013-12-15T12:40:15Z</time>
      </trkpt>
      <trkpt lat="42.78489" lon="0.1447">
        <ele>1838.166626</ele>
        <time>2013-12-15T12:40:26Z</time>
      </trkpt>
      <trkpt lat="42.78488" lon="0.14483">
        <ele>1838.166626</ele>
        <time>2013-12-15T12:40:36Z</time>
      </trkpt>
      <trkpt lat="42.78491" lon="0.14495">
        <ele>1838.166626</ele>
        <time>2013-12-15T12:40:48Z</time>
      </trkpt>
      <trkpt lat="42.78497" lon="0.14505">
        <ele>1838.166626</ele>
        <time>2013-12-15T12:40:59Z</time>
      </trkpt>
      <trkpt lat="42.78502" lon="0.14516">
        <ele>1843.416626</ele>
        <time>2013-12-15T12:41:13Z</time>
      </trkpt>
      <trkpt lat="42.78504" lon="0.14528">
        <ele>1843.416626</ele>
        <time>2013-12-15T12:41:25Z</time>
      </trkpt>
      <trkpt lat="42.78508" lon="0.1454">
        <ele>1843.416626</ele>
        <time>2013-12-15T12:41:37Z</time>
      </trkpt>
      <trkpt lat="42.78513" lon="0.1455">
        <ele>1843.416626</ele>
        <time>2013-12-15T12:41:44Z</time>
      </trkpt>
      <trkpt lat="42.78512" lon="0.14562">
        <ele>1844</ele>
        <time>2013-12-15T12:41:56Z</time>
      </trkpt>
      <trkpt lat="42.7851" lon="0.14574">
        <ele>1844</ele>
        <time>2013-12-15T12:42:05Z</time>
      </trkpt>
      <trkpt lat="42.78517" lon="0.14584">
        <ele>1844</ele>
        <time>2013-12-15T12:42:20Z</time>
      </trkpt>
      <trkpt lat="42.78513" lon="0.14583">
        <ele>1844</ele>
        <time>2013-12-15T12:45:12Z</time>
      </trkpt>
      <trkpt lat="42.7852" lon="0.14618">
        <ele>1852.583374</ele>
        <time>2013-12-15T12:46:27Z</time>
      </trkpt>
      <trkpt lat="42.7852" lon="0.1463">
        <ele>1852.583374</ele>
        <time>2013-12-15T12:46:42Z</time>
      </trkpt>
      <trkpt lat="42.78518" lon="0.14643">
        <ele>1852.583374</ele>
        <time>2013-12-15T12:46:49Z</time>
      </trkpt>
      <trkpt lat="42.7852" lon="0.14655">
        <ele>1852.583374</ele>
        <time>2013-12-15T12:46:56Z</time>
      </trkpt>
      <trkpt lat="42.78525" lon="0.14668">
        <ele>1851.833374</ele>
        <time>2013-12-15T12:47:04Z</time>
      </trkpt>
      <trkpt lat="42.78529" lon="0.14679">
        <ele>1849.666626</ele>
        <time>2013-12-15T12:47:14Z</time>
      </trkpt>
      <trkpt lat="42.78529" lon="0.14691">
        <ele>1849.666626</ele>
        <time>2013-12-15T12:47:21Z</time>
      </trkpt>
      <trkpt lat="42.78532" lon="0.14703">
        <ele>1850.333374</ele>
        <time>2013-12-15T12:47:29Z</time>
      </trkpt>
      <trkpt lat="42.78536" lon="0.14715">
        <ele>1850.333374</ele>
        <time>2013-12-15T12:47:39Z</time>
      </trkpt>
      <trkpt lat="42.78542" lon="0.14724">
        <ele>1850.333374</ele>
        <time>2013-12-15T12:47:45Z</time>
      </trkpt>
      <trkpt lat="42.78544" lon="0.14737">
        <ele>1851.416626</ele>
        <time>2013-12-15T12:47:52Z</time>
      </trkpt>
      <trkpt lat="42.78546" lon="0.14749">
        <ele>1851.416626</ele>
        <time>2013-12-15T12:47:59Z</time>
      </trkpt>
      <trkpt lat="42.78549" lon="0.14761">
        <ele>1851.416626</ele>
        <time>2013-12-15T12:48:06Z</time>
      </trkpt>
      <trkpt lat="42.78552" lon="0.14774">
        <ele>1851.416626</ele>
        <time>2013-12-15T12:48:15Z</time>
      </trkpt>
      <trkpt lat="42.78552" lon="0.14786">
        <ele>1851.416626</ele>
        <time>2013-12-15T12:48:23Z</time>
      </trkpt>
      <trkpt lat="42.78555" lon="0.14798">
        <ele>1851.416626</ele>
        <time>2013-12-15T12:48:32Z</time>
      </trkpt>
      <trkpt lat="42.78559" lon="0.14809">
        <ele>1848.166626</ele>
        <time>2013-12-15T12:48:42Z</time>
      </trkpt>
      <trkpt lat="42.78564" lon="0.1482">
        <ele>1848.166626</ele>
        <time>2013-12-15T12:48:49Z</time>
      </trkpt>
      <trkpt lat="42.78568" lon="0.14832">
        <ele>1848.166626</ele>
        <time>2013-12-15T12:48:56Z</time>
      </trkpt>
      <trkpt lat="42.78575" lon="0.1484">
        <ele>1848.166626</ele>
        <time>2013-12-15T12:49:10Z</time>
      </trkpt>
      <trkpt lat="42.78581" lon="0.1485">
        <ele>1841.166626</ele>
        <time>2013-12-15T12:49:16Z</time>
      </trkpt>
      <trkpt lat="42.78582" lon="0.14865">
        <ele>1841.166626</ele>
        <time>2013-12-15T12:49:25Z</time>
      </trkpt>
      <trkpt lat="42.78583" lon="0.14877">
        <ele>1848.25</ele>
        <time>2013-12-15T12:49:31Z</time>
      </trkpt>
      <trkpt lat="42.78587" lon="0.14889">
        <ele>1848.25</ele>
        <time>2013-12-15T12:49:39Z</time>
      </trkpt>
      <trkpt lat="42.78589" lon="0.14902">
        <ele>1848.25</ele>
        <time>2013-12-15T12:49:48Z</time>
      </trkpt>
      <trkpt lat="42.78589" lon="0.14914">
        <ele>1848.25</ele>
        <time>2013-12-15T12:49:56Z</time>
      </trkpt>
      <trkpt lat="42.7859" lon="0.14927">
        <ele>1855.833374</ele>
        <time>2013-12-15T12:50:06Z</time>
      </trkpt>
      <trkpt lat="42.78594" lon="0.14939">
        <ele>1862.5</ele>
        <time>2013-12-15T12:50:14Z</time>
      </trkpt>
      <trkpt lat="42.78596" lon="0.14953">
        <ele>1862</ele>
        <time>2013-12-15T12:50:21Z</time>
      </trkpt>
      <trkpt lat="42.78598" lon="0.14964">
        <ele>1862</ele>
        <time>2013-12-15T12:50:30Z</time>
      </trkpt>
      <trkpt lat="42.78602" lon="0.14976">
        <ele>1861.75</ele>
        <time>2013-12-15T12:50:41Z</time>
      </trkpt>
      <trkpt lat="42.78606" lon="0.14988">
        <ele>1861.75</ele>
        <time>2013-12-15T12:50:48Z</time>
      </trkpt>
      <trkpt lat="42.78611" lon="0.14999">
        <ele>1861.75</ele>
        <time>2013-12-15T12:50:55Z</time>
      </trkpt>
      <trkpt lat="42.78613" lon="0.15012">
        <ele>1861.75</ele>
        <time>2013-12-15T12:51:03Z</time>
      </trkpt>
      <trkpt lat="42.7862" lon="0.15023">
        <ele>1861.75</ele>
        <time>2013-12-15T12:51:11Z</time>
      </trkpt>
      <trkpt lat="42.78627" lon="0.15031">
        <ele>1861.75</ele>
        <time>2013-12-15T12:51:17Z</time>
      </trkpt>
      <trkpt lat="42.78633" lon="0.15041">
        <ele>1861.75</ele>
        <time>2013-12-15T12:51:28Z</time>
      </trkpt>
      <trkpt lat="42.78636" lon="0.15053">
        <ele>1856.916626</ele>
        <time>2013-12-15T12:51:36Z</time>
      </trkpt>
      <trkpt lat="42.7864" lon="0.15066">
        <ele>1857</ele>
        <time>2013-12-15T12:51:44Z</time>
      </trkpt>
      <trkpt lat="42.78635" lon="0.15076">
        <ele>1857</ele>
        <time>2013-12-15T12:51:58Z</time>
      </trkpt>
      <trkpt lat="42.78637" lon="0.15089">
        <ele>1857</ele>
        <time>2013-12-15T12:52:07Z</time>
      </trkpt>
      <trkpt lat="42.78638" lon="0.15101">
        <ele>1857</ele>
        <time>2013-12-15T12:52:16Z</time>
      </trkpt>
      <trkpt lat="42.78638" lon="0.1513">
        <ele>1857.166626</ele>
        <time>2013-12-15T12:53:58Z</time>
      </trkpt>
      <trkpt lat="42.78642" lon="0.15143">
        <ele>1857.166626</ele>
        <time>2013-12-15T12:54:05Z</time>
      </trkpt>
      <trkpt lat="42.78645" lon="0.15155">
        <ele>1857.166626</ele>
        <time>2013-12-15T12:54:12Z</time>
      </trkpt>
      <trkpt lat="42.7865" lon="0.15179">
        <ele>1857.166626</ele>
        <time>2013-12-15T12:54:49Z</time>
      </trkpt>
      <trkpt lat="42.78651" lon="0.15192">
        <ele>1852.583374</ele>
        <time>2013-12-15T12:55:01Z</time>
      </trkpt>
      <trkpt lat="42.78654" lon="0.15204">
        <ele>1846.083374</ele>
        <time>2013-12-15T12:55:10Z</time>
      </trkpt>
      <trkpt lat="42.78652" lon="0.15216">
        <ele>1846.083374</ele>
        <time>2013-12-15T12:55:22Z</time>
      </trkpt>
      <trkpt lat="42.78652" lon="0.15229">
        <ele>1846.083374</ele>
        <time>2013-12-15T12:55:31Z</time>
      </trkpt>
      <trkpt lat="42.78651" lon="0.15242">
        <ele>1846.083374</ele>
        <time>2013-12-15T12:55:41Z</time>
      </trkpt>
      <trkpt lat="42.78649" lon="0.15254">
        <ele>1846.083374</ele>
        <time>2013-12-15T12:55:49Z</time>
      </trkpt>
      <trkpt lat="42.78649" lon="0.15266">
        <ele>1846.083374</ele>
        <time>2013-12-15T12:55:58Z</time>
      </trkpt>
      <trkpt lat="42.7865" lon="0.15278">
        <ele>1837.666626</ele>
        <time>2013-12-15T12:56:08Z</time>
      </trkpt>
      <trkpt lat="42.78652" lon="0.1529">
        <ele>1837.666626</ele>
        <time>2013-12-15T12:56:19Z</time>
      </trkpt>
      <trkpt lat="42.78653" lon="0.15305">
        <ele>1837.666626</ele>
        <time>2013-12-15T12:56:28Z</time>
      </trkpt>
      <trkpt lat="42.78656" lon="0.15316">
        <ele>1837.666626</ele>
        <time>2013-12-15T12:56:36Z</time>
      </trkpt>
      <trkpt lat="42.78669" lon="0.15333">
        <ele>1837.666626</ele>
        <time>2013-12-15T12:57:03Z</time>
      </trkpt>
    </trkseg>
  </trk>
</gpx>